.
WxDataArchive / Data Records for 2014-04-15
2014-04-14 April 2014 2014-04-16

Data Records for Tuesday, 15 April 2014

Time	Temp	Chill	HIndex	Humid	Dewpt	 Wind 	HiWind	WindDir	Rain 	Barom
-----	----	-----	------	-----	-----	------	------	-------	-----	-----
00:00	30.0	30.0	30.0	93	28.2	3	7	338	0.00	29.836 
00:05	30.0	30.0	30.0	93	28.2	1	7	315	0.00	29.836 
00:10	30.0	30.0	30.0	93	28.2	2	6	0	0.00	29.836 
00:15	30.1	30.1	30.1	93	28.3	2	4	270	0.00	29.831 
00:20	30.1	30.1	30.1	93	28.3	2	5	270	0.00	29.831 
00:25	30.0	30.0	30.0	93	28.2	2	4	315	0.00	29.831 
00:30	29.8	29.8	29.8	93	28.0	3	6	338	0.00	29.835 
00:35	29.8	29.8	29.8	93	28.0	2	9	315	0.00	29.835 
00:40	29.7	29.7	29.7	93	27.9	2	5	338	0.00	29.835 
00:45	29.8	29.8	29.8	93	28.0	2	4	315	0.00	29.824 
00:50	29.8	29.8	29.8	93	28.0	1	3	0	0.00	29.824 
00:55	29.8	29.8	29.8	93	28.0	2	6	270	0.00	29.824 
01:00	30.0	30.0	30.0	93	28.2	2	4	338	0.00	29.838 
01:05	30.0	30.0	30.0	93	28.2	2	5	338	0.00	29.838 
01:10	30.1	30.1	30.1	93	28.3	1	4	270	0.00	29.838 
01:15	30.1	30.1	30.1	93	28.3	0	2	270	0.00	29.847 
01:20	30.1	30.1	30.1	93	28.3	2	5	270	0.00	29.847 
01:25	30.1	30.1	30.1	93	28.3	1	4	270	0.00	29.847 
01:30	30.1	30.1	30.1	93	28.3	1	5	270	0.00	29.846 
01:35	30.0	30.0	30.0	93	28.2	2	5	315	0.00	29.846 
01:40	29.8	29.8	29.8	92	27.8	2	6	292	0.00	29.846 
01:45	29.8	29.8	29.8	92	27.8	2	5	270	0.00	29.854 
01:50	29.8	29.8	29.8	92	27.8	1	4	315	0.00	29.854 
01:55	29.8	29.8	29.8	92	27.8	2	5	315	0.00	29.854 
02:00	29.5	29.5	29.5	92	27.5	2	7	338	0.00	29.842 
02:05	29.4	29.4	29.4	92	27.4	2	5	270	0.00	29.842 
02:10	29.4	29.4	29.4	92	27.4	1	3	292	0.00	29.842 
02:15	29.4	29.4	29.4	92	27.4	2	6	0	0.00	29.857 
02:20	29.3	29.3	29.3	91	27.0	3	6	338	0.00	29.857 
02:25	29.3	29.3	29.3	91	27.0	2	5	0	0.00	29.857 
02:30	29.4	29.4	29.4	91	27.1	0	4	0	0.00	29.876 
02:35	29.5	29.5	29.5	91	27.2	2	5	248	0.00	29.876 
02:40	29.5	29.5	29.5	91	27.2	2	5	315	0.00	29.876 
02:45	29.3	29.3	29.3	91	27.0	3	7	292	0.00	29.874 
02:50	29.1	29.1	29.1	91	26.8	3	7	292	0.00	29.874 
02:55	29.0	29.0	29.0	90	26.4	2	5	338	0.00	29.874 
03:00	28.8	28.8	28.8	90	26.2	2	5	338	0.00	29.843 
03:05	28.8	28.8	28.8	90	26.2	1	4	270	0.00	29.843 
03:10	29.0	29.0	29.0	90	26.4	1	3	315	0.00	29.843 
03:15	29.0	29.0	29.0	90	26.4	2	6	315	0.00	29.856 
03:20	29.0	29.0	29.0	90	26.4	2	4	270	0.00	29.856 
03:25	28.8	28.8	28.8	90	26.2	2	6	338	0.00	29.856 
03:30	28.8	28.8	28.8	89	26.0	2	4	292	0.00	29.874 
03:35	28.8	28.8	28.8	89	26.0	2	5	292	0.00	29.874 
03:40	28.8	28.8	28.8	89	26.0	2	4	315	0.00	29.874 
03:45	28.7	28.7	28.7	89	25.9	3	6	338	0.00	29.873 
03:50	28.7	28.7	28.7	88	25.6	2	6	338	0.00	29.873 
03:55	28.8	28.8	28.8	88	25.7	1	4	292	0.00	29.873 
04:00	28.8	28.8	28.8	88	25.7	1	3	270	0.00	29.881 
04:05	28.8	28.8	28.8	88	25.7	1	4	270	0.00	29.881 
04:10	28.8	28.8	28.8	88	25.7	2	6	315	0.00	29.881 
04:15	28.7	28.7	28.7	88	25.6	1	4	248	0.00	29.886 
04:20	28.7	28.7	28.7	88	25.6	2	4	292	0.00	29.886 
04:25	28.5	28.5	28.5	87	25.1	2	5	315	0.00	29.886 
04:30	28.4	28.4	28.4	87	25.0	3	6	292	0.00	29.887 
04:35	28.2	28.2	28.2	86	24.6	3	7	315	0.00	29.887 
04:40	28.1	28.1	28.1	85	24.2	3	9	292	0.00	29.887 
04:45	27.9	23.3	27.9	85	24.0	4	14	292	0.00	29.886 
04:50	27.8	27.8	27.8	84	23.6	3	7	270	0.00	29.886 
04:55	27.8	27.8	27.8	84	23.6	3	10	338	0.00	29.886 
05:00	27.8	27.8	27.8	83	23.3	2	7	315	0.00	29.893 
05:05	27.9	27.9	27.9	83	23.4	1	4	338	0.00	29.893 
05:10	27.9	27.9	27.9	84	23.7	1	4	292	0.00	29.893 
05:15	27.9	27.9	27.9	84	23.7	1	7	338	0.00	29.898 
05:20	28.1	28.1	28.1	84	23.9	1	4	270	0.00	29.898 
05:25	28.1	28.1	28.1	84	23.9	2	5	270	0.00	29.898 
05:30	27.9	27.9	27.9	84	23.7	2	6	315	0.00	29.906 
05:35	27.8	27.8	27.8	83	23.3	3	7	338	0.00	29.906 
05:40	27.3	27.3	27.3	81	22.3	3	7	292	0.00	29.906 
05:45	27.2	27.2	27.2	81	22.2	3	5	338	0.00	29.910 
05:50	27.0	27.0	27.0	81	22.0	2	5	338	0.00	29.910 
05:55	27.0	27.0	27.0	81	22.0	2	6	338	0.00	29.910 
06:00	26.7	26.7	26.7	80	21.4	2	6	338	0.00	29.911 
06:05	26.6	26.6	26.6	80	21.3	3	8	338	0.00	29.911 
06:10	26.6	26.6	26.6	80	21.3	3	6	338	0.00	29.911 
06:15	26.6	26.6	26.6	80	21.3	3	7	338	0.00	29.914 
06:20	26.4	26.4	26.4	80	21.1	2	7	338	0.00	29.914 
06:25	26.3	26.3	26.3	79	20.7	2	4	270	0.00	29.914 
06:30	26.3	26.3	26.3	79	20.7	1	4	338	0.00	29.923 
06:35	26.3	26.3	26.3	80	21.0	2	5	338	0.00	29.923 
06:40	26.3	26.3	26.3	80	21.0	1	5	338	0.00	29.923 
06:45	26.3	26.3	26.3	80	21.0	1	5	338	0.00	29.930 
06:50	26.3	26.3	26.3	80	21.0	2	7	338	0.00	29.930 
06:55	26.4	26.4	26.4	80	21.1	2	7	338	0.00	29.930 
07:00	26.6	26.6	26.6	80	21.3	1	5	292	0.00	29.943 
07:05	26.4	26.4	26.4	80	21.1	1	6	270	0.00	29.943 
07:10	26.3	26.3	26.3	80	21.0	1	4	338	0.00	29.943 
07:15	26.3	26.3	26.3	80	21.0	1	4	338	0.00	29.958 
07:20	26.1	26.1	26.1	80	20.8	1	3	0	0.00	29.958 
07:25	26.1	26.1	26.1	78	20.2	2	5	292	0.00	29.958 
07:30	26.1	26.1	26.1	77	19.9	2	6	338	0.00	29.962 
07:35	26.1	26.1	26.1	75	19.3	3	6	315	0.00	29.962 
07:40	26.3	26.3	26.3	74	19.2	2	5	270	0.00	29.962 
07:45	26.3	26.3	26.3	73	18.8	3	7	292	0.00	29.976 
07:50	26.3	21.5	26.3	70	17.9	4	7	292	0.00	29.976 
07:55	26.4	26.4	26.4	70	18.0	2	6	338	0.00	29.976 
08:00	26.4	26.4	26.4	69	17.6	3	7	292	0.00	29.989 
08:05	26.3	26.3	26.3	68	17.2	3	7	338	0.00	29.989 
08:10	26.4	26.4	26.4	69	17.6	2	5	292	0.00	29.989 
08:15	26.6	26.6	26.6	68	17.5	3	6	338	0.00	29.988 
08:20	26.6	26.6	26.6	67	17.1	3	6	315	0.00	29.988 
08:25	26.6	26.6	26.6	67	17.1	2	5	292	0.00	29.988 
08:30	26.9	26.9	26.9	68	17.8	2	5	292	0.00	29.994 
08:35	27.0	27.0	27.0	67	17.5	2	5	270	0.00	29.994 
08:40	27.0	27.0	27.0	66	17.2	3	7	315	0.00	29.994 
08:45	27.0	22.3	27.0	66	17.2	4	9	248	0.01	30.000 
08:50	27.0	22.3	27.0	65	16.8	4	10	315	0.00	30.000 
08:55	27.2	27.2	27.2	66	17.4	2	6	315	0.00	30.000 
09:00	27.2	22.5	27.2	65	17.0	4	9	315	0.00	30.011 
09:05	27.2	22.5	27.2	64	16.7	4	11	270	0.00	30.011 
09:10	27.3	27.3	27.3	65	17.1	3	7	315	0.00	30.011 
09:15	27.2	22.5	27.2	64	16.7	4	13	292	0.00	30.020 
09:20	27.3	22.6	27.3	65	17.1	4	10	338	0.00	30.020 
09:25	27.8	27.8	27.8	65	17.6	3	9	315	0.00	30.020 
09:30	28.1	28.1	28.1	64	17.5	3	11	338	0.00	30.022 
09:35	28.4	28.4	28.4	64	17.8	3	6	338	0.00	30.022 
09:40	28.8	28.8	28.8	65	18.5	3	6	315	0.00	30.022 
09:45	29.1	29.1	29.1	64	18.5	3	7	338	0.00	30.028 
09:50	28.8	28.8	28.8	62	17.4	3	10	270	0.00	30.028 
09:55	28.2	28.2	28.2	62	16.9	3	8	270	0.00	30.028 
10:00	27.9	23.3	27.9	61	16.2	4	10	292	0.00	30.032 
10:05	27.9	23.3	27.9	61	16.2	4	12	292	0.00	30.032 
10:10	28.5	24.0	28.5	60	16.4	4	9	0	0.00	30.032 
10:15	29.1	24.7	29.1	59	16.6	4	12	315	0.00	30.038 
10:20	29.1	24.7	29.1	58	16.2	4	10	292	0.00	30.038 
10:25	29.1	24.7	29.1	59	16.6	4	9	338	0.00	30.038 
10:30	29.7	29.7	29.7	59	17.1	3	6	248	0.00	30.044 
10:35	29.7	25.4	29.7	57	16.4	4	9	338	0.00	30.044 
10:40	29.5	29.5	29.5	56	15.8	3	8	338	0.00	30.044 
10:45	29.1	23.7	29.1	55	15.0	5	11	315	0.00	30.046 
10:50	29.3	25.0	29.3	55	15.2	4	7	292	0.00	30.046 
10:55	29.3	29.3	29.3	55	15.2	3	7	292	0.00	30.046 
11:00	29.3	29.3	29.3	55	15.2	3	7	292	0.00	30.056 
11:05	29.1	29.1	29.1	55	15.0	3	10	315	0.00	30.056 
11:10	29.1	29.1	29.1	56	15.4	2	5	270	0.00	30.056 
11:15	29.0	29.0	29.0	56	15.3	3	6	315	0.00	30.063 
11:20	29.1	29.1	29.1	56	15.4	2	7	270	0.00	30.063 
11:25	29.4	29.4	29.4	58	16.5	3	9	315	0.00	30.063 
11:30	29.8	29.8	29.8	57	16.4	3	7	315	0.00	30.062 
11:35	29.7	25.4	29.7	57	16.4	4	9	292	0.00	30.062 
11:40	29.7	29.7	29.7	58	16.8	3	6	315	0.00	30.062 
11:45	29.8	25.5	29.8	57	16.4	4	12	292	0.00	30.068 
11:50	29.7	29.7	29.7	58	16.8	3	10	270	0.00	30.068 
11:55	30.4	30.4	30.4	57	17.0	3	5	270	0.00	30.068 
12:00	30.9	26.8	30.9	54	16.2	4	10	270	0.00	30.072 
12:05	31.2	26.1	31.2	51	15.2	5	11	270	0.00	30.072 
12:10	31.3	31.3	31.3	51	15.3	3	6	315	0.00	30.072 
12:15	31.2	31.2	31.2	52	15.6	2	5	292	0.00	30.075 
12:20	31.0	25.9	31.0	48	13.6	5	11	292	0.00	30.075 
12:25	31.5	26.5	31.5	50	15.0	5	14	270	0.01	30.075 
12:30	31.0	26.9	31.0	49	14.1	4	10	292	0.00	30.075 
12:35	31.0	31.0	31.0	52	15.5	3	9	315	0.00	30.075 
12:40	30.9	26.8	30.9	49	14.0	4	11	315	0.00	30.075 
12:45	31.2	31.2	31.2	49	14.3	3	8	270	0.00	30.078 
12:50	31.2	27.2	31.2	48	13.8	4	10	315	0.00	30.078 
12:55	31.8	31.8	31.8	52	16.2	3	8	315	0.00	30.078 
13:00	31.6	27.6	31.6	51	15.6	4	10	338	0.00	30.086 
13:05	31.5	31.5	31.5	53	16.4	3	8	315	0.00	30.086 
13:10	31.3	31.3	31.3	50	14.8	3	10	270	0.00	30.086 
13:15	31.2	27.2	31.2	49	14.3	4	9	270	0.00	30.091 
13:20	30.7	26.6	30.7	47	12.9	4	12	292	0.00	30.091 
13:25	31.2	31.2	31.2	49	14.3	3	7	338	0.00	30.091 
13:30	31.8	27.8	31.8	49	14.8	4	11	292	0.00	30.090 
13:35	31.8	31.8	31.8	48	14.4	3	6	270	0.00	30.090 
13:40	31.5	31.5	31.5	50	15.0	3	11	270	0.00	30.090 
13:45	31.5	31.5	31.5	51	15.5	3	7	315	0.00	30.097 
13:50	31.8	31.8	31.8	51	15.8	3	6	292	0.00	30.097 
13:55	32.4	32.4	32.4	49	15.4	3	8	338	0.00	30.097 
14:00	32.1	32.1	32.1	49	15.1	3	10	292	0.00	30.098 
14:05	32.4	32.4	32.4	47	14.4	3	7	270	0.00	30.098 
14:10	32.4	32.4	32.4	46	14.0	3	8	292	0.00	30.098 
14:15	31.9	28.0	31.9	49	14.9	4	11	315	0.00	30.106 
14:20	32.2	28.3	32.2	48	14.7	4	7	270	0.00	30.106 
14:25	32.7	32.7	32.7	53	17.5	3	6	315	0.00	30.106 
14:30	32.9	32.9	32.9	49	15.9	2	6	315	0.00	30.106 
14:35	32.7	28.9	32.7	45	13.7	4	12	292	0.01	30.106 
14:40	32.1	28.2	32.1	49	15.1	4	12	270	0.00	30.106 
14:45	31.8	27.8	31.8	49	14.8	4	11	270	0.00	30.115 
14:50	32.4	32.4	32.4	49	15.4	3	10	338	0.00	30.115 
14:55	32.4	27.5	32.4	46	14.0	5	11	292	0.00	30.115 
15:00	32.7	28.9	32.7	46	14.2	4	7	292	0.00	30.118 
15:05	32.9	32.9	32.9	44	13.4	3	9	315	0.00	30.118 
15:10	32.2	28.3	32.2	46	13.8	4	10	338	0.00	30.118 
15:15	31.9	28.0	31.9	43	12.0	4	11	338	0.00	30.123 
15:20	32.9	29.1	32.9	44	13.4	4	13	248	0.00	30.123 
15:25	33.1	33.1	33.1	42	12.5	3	6	270	0.00	30.123 
15:30	33.2	33.2	33.2	45	14.2	3	9	270	0.00	30.122 
15:35	32.9	29.1	32.9	41	11.8	4	11	292	0.00	30.122 
15:40	32.9	32.9	32.9	44	13.4	3	11	270	0.00	30.122 
15:45	32.9	29.1	32.9	40	11.3	4	9	292	0.00	30.122 
15:50	32.4	28.5	32.4	41	11.4	4	9	292	0.00	30.122 
15:55	32.5	32.5	32.5	42	12.0	3	10	270	0.00	30.122 
16:00	32.5	32.5	32.5	40	10.9	3	10	292	0.00	30.125 
16:05	33.2	33.2	33.2	42	12.6	2	7	338	0.00	30.125 
16:10	34.3	34.3	34.3	40	12.5	3	8	338	0.00	30.125 
16:15	33.7	30.0	33.7	38	10.8	4	8	292	0.00	30.127 
16:20	33.7	30.0	33.7	40	12.0	4	9	292	0.00	30.127 
16:25	33.7	33.7	33.7	42	13.1	3	10	292	0.00	30.127 
16:30	34.6	34.6	34.6	43	14.4	3	6	315	0.00	30.126 
16:35	34.4	29.9	34.4	39	12.0	5	10	292	0.00	30.126 
16:40	34.1	34.1	34.1	41	12.9	2	6	315	0.00	30.126 
16:45	34.3	30.7	34.3	39	11.9	4	7	315	0.00	30.133 
16:50	34.1	30.5	34.1	38	11.2	4	12	315	0.00	30.133 
16:55	34.4	30.8	34.4	39	12.0	4	9	292	0.00	30.133 
17:00	34.1	30.5	34.1	39	11.8	4	8	315	0.00	30.139 
17:05	34.0	34.0	34.0	40	12.2	3	7	270	0.00	30.139 
17:10	34.4	34.4	34.4	39	12.0	3	11	292	0.00	30.139 
17:15	34.4	34.4	34.4	38	11.5	3	11	292	0.00	30.141 
17:20	34.6	34.6	34.6	37	11.0	3	9	248	0.00	30.141 
17:25	34.1	34.1	34.1	39	11.8	3	6	270	0.00	30.141 
17:30	33.7	33.7	33.7	36	9.6	3	11	270	0.00	30.151 
17:35	33.1	33.1	33.1	38	10.3	3	10	270	0.00	30.151 
17:40	32.7	32.7	32.7	39	10.5	2	9	338	0.00	30.151 
17:45	32.8	32.8	32.8	40	11.2	3	9	270	0.00	30.160 
17:50	33.1	33.1	33.1	39	10.9	3	11	292	0.00	30.160 
17:55	33.8	30.2	33.8	39	11.5	4	10	338	0.00	30.160 
18:00	34.4	34.4	34.4	37	10.9	3	9	270	0.00	30.163 
18:05	34.4	34.4	34.4	37	10.9	3	7	292	0.00	30.163 
18:10	34.6	34.6	34.6	36	10.4	3	10	270	0.00	30.163 
18:15	34.6	34.6	34.6	35	9.8	2	4	270	0.00	30.167 
18:20	34.3	34.3	34.3	36	10.2	3	9	270	0.00	30.167 
18:25	33.4	33.4	33.4	36	9.4	3	6	292	0.00	30.167 
18:30	32.9	32.9	32.9	37	9.5	1	4	270	0.00	30.173 
18:35	33.2	33.2	33.2	35	8.5	2	6	270	0.00	30.173 
18:40	33.2	33.2	33.2	37	9.8	3	10	338	0.00	30.173 
18:45	33.1	33.1	33.1	36	9.1	2	10	338	0.00	30.186 
18:50	33.1	33.1	33.1	35	8.5	2	7	248	0.00	30.186 
18:55	32.9	32.9	32.9	35	8.3	2	5	338	0.00	30.186 
19:00	32.9	32.9	32.9	36	8.9	2	6	315	0.00	30.185 
19:05	33.1	33.1	33.1	33	7.2	2	5	270	0.00	30.185 
19:10	32.8	32.8	32.8	34	7.6	2	6	292	0.00	30.185 
19:15	32.7	32.7	32.7	35	8.1	3	7	270	0.00	30.188 
19:20	32.4	32.4	32.4	33	6.5	3	10	292	0.00	30.188 
19:25	32.2	32.2	32.2	33	6.4	3	7	292	0.00	30.188 
19:30	32.1	32.1	32.1	33	6.3	2	5	270	0.00	30.196 
19:35	31.9	31.9	31.9	32	5.4	2	7	292	0.00	30.196 
19:40	31.8	31.8	31.8	32	5.3	2	9	270	0.00	30.196 
19:45	31.6	31.6	31.6	33	5.8	3	9	338	0.00	30.204 
19:50	31.5	31.5	31.5	33	5.7	2	6	338	0.00	30.204 
19:55	31.3	31.3	31.3	35	6.9	1	6	315	0.00	30.204 
20:00	31.2	31.2	31.2	34	6.1	2	6	292	0.00	30.206 
20:05	31.2	31.2	31.2	35	6.8	1	4	315	0.00	30.206 
20:10	31.0	31.0	31.0	35	6.6	0	2	270	0.00	30.206 
20:15	30.7	30.7	30.7	35	6.3	0	3	270	0.00	30.210 
20:20	30.6	30.6	30.6	35	6.2	0	2	292	0.00	30.210 
20:25	30.4	30.4	30.4	36	6.7	0	2	292	0.00	30.210 
20:30	30.4	30.4	30.4	36	6.7	0	3	292	0.00	30.220 
20:35	30.3	30.3	30.3	37	7.2	0	1	292	0.00	30.220 
20:40	30.1	30.1	30.1	38	7.6	0	2	292	0.00	30.220 
20:45	30.0	30.0	30.0	38	7.5	0	1	292	0.00	30.223 
20:50	29.8	29.8	29.8	39	7.9	0	1	292	0.00	30.223 
20:55	29.7	29.7	29.7	39	7.8	0	1	292	0.00	30.223 
21:00	29.5	29.5	29.5	39	7.6	0	1	292	0.00	30.232 
21:05	29.5	29.5	29.5	39	7.6	0	0	---	0.00	30.232 
21:10	29.4	29.4	29.4	40	8.1	0	0	---	0.00	30.232 
21:15	29.3	29.3	29.3	41	8.6	0	0	---	0.00	30.238 
21:20	29.0	29.0	29.0	41	8.3	0	0	---	0.00	30.238 
21:25	28.7	28.7	28.7	41	8.0	0	0	---	0.00	30.238 
21:30	28.4	28.4	28.4	42	8.3	0	0	---	0.00	30.245 
21:35	28.2	28.2	28.2	43	8.6	0	0	---	0.00	30.245 
21:40	27.9	27.9	27.9	45	9.3	0	0	---	0.00	30.245 
21:45	27.6	27.6	27.6	45	9.1	0	0	---	0.00	30.252 
21:50	27.3	27.3	27.3	46	9.3	0	0	---	0.00	30.252 
21:55	27.2	27.2	27.2	47	9.7	0	0	---	0.00	30.252 
22:00	26.9	26.9	26.9	48	9.9	0	0	---	0.00	30.261 
22:05	26.6	26.6	26.6	49	10.0	0	0	---	0.00	30.261 
22:10	26.4	26.4	26.4	48	9.4	0	0	---	0.00	30.261 
22:15	26.4	26.4	26.4	48	9.4	0	0	---	0.00	30.267 
22:20	26.3	26.3	26.3	48	9.3	0	0	---	0.00	30.267 
22:25	26.1	26.1	26.1	49	9.6	0	0	---	0.00	30.267 
22:30	26.0	26.0	26.0	49	9.5	0	0	---	0.00	30.269 
22:35	25.8	25.8	25.8	50	9.8	0	0	---	0.00	30.269 
22:40	25.7	25.7	25.7	50	9.7	0	0	---	0.00	30.269 
22:45	25.6	25.6	25.6	52	10.4	0	0	---	0.00	30.270 
22:50	25.4	25.4	25.4	53	10.7	0	0	---	0.00	30.270 
22:55	25.1	25.1	25.1	54	10.8	0	0	---	0.00	30.270 
23:00	25.0	25.0	25.0	54	10.7	0	0	---	0.00	30.271 
23:05	25.0	25.0	25.0	55	11.1	0	0	---	0.00	30.271 
23:10	24.8	24.8	24.8	56	11.4	0	0	---	0.00	30.271 
23:15	24.7	24.7	24.7	57	11.7	0	0	---	0.00	30.270 
23:20	24.5	24.5	24.5	58	11.9	0	0	---	0.00	30.270 
23:25	24.4	24.4	24.4	58	11.8	0	0	---	0.00	30.270 
23:30	24.1	24.1	24.1	58	11.5	0	0	---	0.00	30.272 
23:35	23.9	23.9	23.9	58	11.3	0	0	---	0.00	30.272 
23:40	23.8	23.8	23.8	59	11.6	0	0	---	0.00	30.272 
23:45	23.8	23.8	23.8	60	12.0	0	0	---	0.00	30.271 
23:50	23.6	23.6	23.6	61	12.2	0	0	---	0.00	30.271 
23:55	23.5	23.5	23.5	62	12.4	0	0	---	0.00	30.271 

CoCoRaHS
IN-AL-39
A2 Web Hosting
Creative Commons License
GoDaddy
search engine by freefind advanced

loaded 2018-11-22 06:21:13 • last modified 2010-11-18 10:43:29
Privacy PolicyDisclaimer
• wx.awcolley.com is powered by PmWiki v.2002016 •
• all content (unless otherwise noted) © 2018 A W Colley